Terminal Aerodrome Forecast
Issued by NWS

Home | Current Version | Previous Version | Text Only | Print | Product List | Glossary Off
Versions: 1 2 3 4 5 6 7 8 9 10 11 12 13 14 15 16

000
FTUS45 KGGW 011720
TAFOLF
TAF
KOLF 011720Z 0118/0218 00000KT P6SM BKN040
     FM012100 VRB03KT P6SM OVC029
     FM021000 00000KT P6SM OVC015=

USA.gov is the U.S. government's official web portal to all federal, state and local government web resources and services.